Irvington, AL

12:04 PM CDT on September 04, 2015 (GMT -0500)
Driftwood | | Change Station
CLOSE
Current Station
Personal Weather Station
Location: Irvington, AL
Elevation: 89 ft
Nearby Weather Stations

Elev 89 ft 30.45 °N, 88.22 °W | Updated 58 seconds ago

Partly Cloudy
Partly Cloudy
87.6 °F
Feels Like 98 °F
N
0.2
Wind Variable Wind from SW
Gusts 2.5 mph

Today
High -- | Low -- °F
--% Chance of Precip.
Yesterday
High -- | Low -- °F
Precip. -- in
6:31 AM 7:12 PM
Waning Gibbous, 58% visible
Pressure 30.03 in
Visibility 10.0 miles
Clouds Mostly Cloudy 3200 ft
Mostly Cloudy 4200 ft
Heat Index 98 °F
Dew Point 76 °F
Humidity 68%
Rainfall 0.00 in
Snow Depth Not available.
UV 2.0 out of 12
Pollen 8.30 out of 12
Air Quality Not available.
Flu Activity Not available.
METAR KBFM 041653Z 11008KT 10SM BKN032 BKN042 31/24 A3002 RMK AO2 SLP167 TCU DSNT SE-SW T03110244
Pressure 30.03 in
Visibility 10.0 miles
Clouds Mostly Cloudy 3200 ft
Mostly Cloudy 4200 ft
Heat Index 98 °F
Dew Point 76 °F
Humidity 68%
Rainfall 0.00 in
Snow Depth Not available.
UV 2.0 out of 12
Pollen 8.30 out of 12
Air Quality Not available.
Flu Activity Not available.
METAR KBFM 041653Z 11008KT 10SM BKN032 BKN042 31/24 A3002 RMK AO2 SLP167 TCU DSNT SE-SW T03110244

10-Day Weather Forecast

×

Almanac

Astronomy

Sep. 04, 2015 Rise Set
Actual Time
Civil Twilight
Nautical Twilight
Astronomical Twilight
Moon
Length of Visible Light
Length of Day
Tomorrow will be .
, % of the Moon is Illuminated

Today's Extremes

State Highs State Lows

Community

WunderPhotos

Upload Photos

1,852,230 photos uploaded!

WunderBlogs® & News

Nearby

Air Quality

  Air Quality AQ Index Pollutant
Not available.

Snow Depth

Station Depth Elevation

Earthquake Activity

City Distance Mag. Time & Date
Minimum magnitude displayed is 2.5.

Coastal Water Temperatures

Place Temperature

Stations

Nearby Weather Stations

Station Location Temp. Windchill Dew Point Humidity Wind Precip. Elev Updated Type